sensor_id;sensor_type;location;lat;lon;timestamp;P1;durP1;ratioP1;P2;durP2;ratioP2
5898;SDS011;2975;50.956;6.962;2023-10-09T00:01:01;25.83;;;12.57;;
5898;SDS011;2975;50.956;6.962;2023-10-09T00:03:28;26.30;;;12.83;;
5898;SDS011;2975;50.956;6.962;2023-10-09T00:05:54;24.57;;;11.93;;
5898;SDS011;2975;50.956;6.962;2023-10-09T00:08:20;28.13;;;11.63;;
5898;SDS011;2975;50.956;6.962;2023-10-09T00:11:05;26.57;;;12.07;;
5898;SDS011;2975;50.956;6.962;2023-10-09T00:13:43;19.30;;;11.23;;
5898;SDS011;2975;50.956;6.962;2023-10-09T00:16:22;19.73;;;11.30;;
5898;SDS011;2975;50.956;6.962;2023-10-09T00:18:59;23.37;;;11.73;;
5898;SDS011;2975;50.956;6.962;2023-10-09T00:21:49;22.40;;;11.13;;
5898;SDS011;2975;50.956;6.962;2023-10-09T00:24:15;21.60;;;10.77;;
5898;SDS011;2975;50.956;6.962;2023-10-09T00:26:49;22.00;;;10.37;;
5898;SDS011;2975;50.956;6.962;2023-10-09T00:29:21;20.23;;;10.57;;
5898;SDS011;2975;50.956;6.962;2023-10-09T00:31:50;24.70;;;11.70;;
5898;SDS011;2975;50.956;6.962;2023-10-09T00:34:20;23.07;;;10.47;;
5898;SDS011;2975;50.956;6.962;2023-10-09T00:36:47;22.80;;;10.93;;
5898;SDS011;2975;50.956;6.962;2023-10-09T00:39:19;20.37;;;10.73;;
5898;SDS011;2975;50.956;6.962;2023-10-09T00:42:01;18.40;;;10.30;;
5898;SDS011;2975;50.956;6.962;2023-10-09T00:44:28;20.63;;;10.27;;
5898;SDS011;2975;50.956;6.962;2023-10-09T00:47:04;20.13;;;9.80;;
5898;SDS011;2975;50.956;6.962;2023-10-09T00:49:45;18.90;;;9.60;;
5898;SDS011;2975;50.956;6.962;2023-10-09T00:52:46;20.73;;;10.10;;
5898;SDS011;2975;50.956;6.962;2023-10-09T00:55:17;19.87;;;9.70;;
5898;SDS011;2975;50.956;6.962;2023-10-09T00:58:01;18.97;;;9.13;;
5898;SDS011;2975;50.956;6.962;2023-10-09T01:00:30;18.80;;;9.80;;
5898;SDS011;2975;50.956;6.962;2023-10-09T01:03:08;18.17;;;9.37;;
5898;SDS011;2975;50.956;6.962;2023-10-09T01:05:43;19.07;;;9.50;;
5898;SDS011;2975;50.956;6.962;2023-10-09T01:08:41;22.37;;;8.90;;
5898;SDS011;2975;50.956;6.962;2023-10-09T01:11:07;16.03;;;9.20;;
5898;SDS011;2975;50.956;6.962;2023-10-09T01:13:43;15.80;;;9.13;;
5898;SDS011;2975;50.956;6.962;2023-10-09T01:16:21;18.03;;;9.33;;
5898;SDS011;2975;50.956;6.962;2023-10-09T01:18:52;17.73;;;9.70;;
5898;SDS011;2975;50.956;6.962;2023-10-09T01:21:21;17.20;;;9.70;;
5898;SDS011;2975;50.956;6.962;2023-10-09T01:23:51;18.30;;;8.83;;
5898;SDS011;2975;50.956;6.962;2023-10-09T01:26:30;21.57;;;9.73;;
5898;SDS011;2975;50.956;6.962;2023-10-09T01:28:59;21.57;;;9.80;;
5898;SDS011;2975;50.956;6.962;2023-10-09T01:31:25;22.70;;;9.73;;
5898;SDS011;2975;50.956;6.962;2023-10-09T01:33:52;21.20;;;9.63;;
5898;SDS011;2975;50.956;6.962;2023-10-09T01:36:24;24.87;;;9.57;;
5898;SDS011;2975;50.956;6.962;2023-10-09T01:39:00;22.03;;;9.47;;
5898;SDS011;2975;50.956;6.962;2023-10-09T01:41:33;19.80;;;9.83;;
5898;SDS011;2975;50.956;6.962;2023-10-09T01:43:59;17.83;;;9.03;;
5898;SDS011;2975;50.956;6.962;2023-10-09T01:46:35;16.17;;;8.87;;
5898;SDS011;2975;50.956;6.962;2023-10-09T01:49:01;18.67;;;9.90;;
5898;SDS011;2975;50.956;6.962;2023-10-09T01:51:33;17.40;;;9.00;;
5898;SDS011;2975;50.956;6.962;2023-10-09T01:54:01;16.03;;;9.53;;
5898;SDS011;2975;50.956;6.962;2023-10-09T01:56:27;19.50;;;9.03;;
5898;SDS011;2975;50.956;6.962;2023-10-09T01:58:53;16.23;;;8.47;;
5898;SDS011;2975;50.956;6.962;2023-10-09T02:01:22;20.83;;;9.03;;
5898;SDS011;2975;50.956;6.962;2023-10-09T02:03:48;19.50;;;9.07;;
5898;SDS011;2975;50.956;6.962;2023-10-09T02:06:16;20.27;;;8.97;;
5898;SDS011;2975;50.956;6.962;2023-10-09T02:08:49;16.77;;;8.47;;
5898;SDS011;2975;50.956;6.962;2023-10-09T02:11:16;16.97;;;8.20;;
5898;SDS011;2975;50.956;6.962;2023-10-09T02:14:00;13.97;;;7.97;;
5898;SDS011;2975;50.956;6.962;2023-10-09T02:16:26;17.90;;;8.27;;
5898;SDS011;2975;50.956;6.962;2023-10-09T02:18:54;16.03;;;8.30;;
5898;SDS011;2975;50.956;6.962;2023-10-09T02:21:32;16.97;;;7.80;;
5898;SDS011;2975;50.956;6.962;2023-10-09T02:23:59;14.40;;;7.97;;
5898;SDS011;2975;50.956;6.962;2023-10-09T02:26:32;16.13;;;8.27;;
5898;SDS011;2975;50.956;6.962;2023-10-09T02:29:04;11.83;;;7.60;;
5898;SDS011;2975;50.956;6.962;2023-10-09T02:31:40;12.77;;;7.10;;
5898;SDS011;2975;50.956;6.962;2023-10-09T02:34:09;14.63;;;7.67;;
5898;SDS011;2975;50.956;6.962;2023-10-09T02:36:38;15.03;;;8.07;;
5898;SDS011;2975;50.956;6.962;2023-10-09T02:39:07;16.40;;;6.93;;
5898;SDS011;2975;50.956;6.962;2023-10-09T02:41:48;13.50;;;7.47;;
5898;SDS011;2975;50.956;6.962;2023-10-09T02:44:26;14.50;;;7.40;;
5898;SDS011;2975;50.956;6.962;2023-10-09T02:47:04;15.97;;;8.23;;
5898;SDS011;2975;50.956;6.962;2023-10-09T02:49:36;13.70;;;6.50;;
5898;SDS011;2975;50.956;6.962;2023-10-09T02:52:04;14.20;;;6.93;;
5898;SDS011;2975;50.956;6.962;2023-10-09T02:54:32;13.23;;;6.90;;
5898;SDS011;2975;50.956;6.962;2023-10-09T02:57:06;18.27;;;7.97;;
5898;SDS011;2975;50.956;6.962;2023-10-09T02:59:33;14.70;;;7.33;;
5898;SDS011;2975;50.956;6.962;2023-10-09T03:01:59;17.43;;;7.13;;
5898;SDS011;2975;50.956;6.962;2023-10-09T03:04:26;13.10;;;7.70;;
5898;SDS011;2975;50.956;6.962;2023-10-09T03:06:56;15.87;;;7.60;;
5898;SDS011;2975;50.956;6.962;2023-10-09T03:09:22;13.60;;;7.60;;
5898;SDS011;2975;50.956;6.962;2023-10-09T03:11:54;12.90;;;6.37;;
5898;SDS011;2975;50.956;6.962;2023-10-09T03:14:25;15.63;;;7.63;;
5898;SDS011;2975;50.956;6.962;2023-10-09T03:16:53;13.40;;;7.10;;
5898;SDS011;2975;50.956;6.962;2023-10-09T03:19:21;14.53;;;8.10;;
5898;SDS011;2975;50.956;6.962;2023-10-09T03:21:47;10.23;;;6.87;;
5898;SDS011;2975;50.956;6.962;2023-10-09T03:24:12;11.90;;;7.10;;
5898;SDS011;2975;50.956;6.962;2023-10-09T03:26:38;17.03;;;8.10;;
5898;SDS011;2975;50.956;6.962;2023-10-09T03:29:03;15.83;;;7.50;;
5898;SDS011;2975;50.956;6.962;2023-10-09T03:31:35;16.60;;;8.23;;
5898;SDS011;2975;50.956;6.962;2023-10-09T03:34:02;13.93;;;7.63;;
5898;SDS011;2975;50.956;6.962;2023-10-09T03:36:28;12.77;;;7.20;;
5898;SDS011;2975;50.956;6.962;2023-10-09T03:38:58;16.63;;;7.20;;
5898;SDS011;2975;50.956;6.962;2023-10-09T03:41:25;16.17;;;7.50;;
5898;SDS011;2975;50.956;6.962;2023-10-09T03:43:54;14.13;;;7.43;;
5898;SDS011;2975;50.956;6.962;2023-10-09T03:46:20;13.47;;;8.00;;
5898;SDS011;2975;50.956;6.962;2023-10-09T03:48:48;13.07;;;7.37;;
5898;SDS011;2975;50.956;6.962;2023-10-09T03:51:14;14.73;;;8.03;;
5898;SDS011;2975;50.956;6.962;2023-10-09T03:53:50;12.40;;;7.30;;
5898;SDS011;2975;50.956;6.962;2023-10-09T03:56:19;10.43;;;6.57;;
5898;SDS011;2975;50.956;6.962;2023-10-09T03:58:47;12.17;;;7.33;;
5898;SDS011;2975;50.956;6.962;2023-10-09T04:01:15;15.37;;;7.80;;
5898;SDS011;2975;50.956;6.962;2023-10-09T04:03:48;17.37;;;7.27;;
5898;SDS011;2975;50.956;6.962;2023-10-09T04:06:23;14.77;;;7.83;;
5898;SDS011;2975;50.956;6.962;2023-10-09T04:08:53;14.03;;;7.20;;
5898;SDS011;2975;50.956;6.962;2023-10-09T04:11:19;14.13;;;7.50;;
5898;SDS011;2975;50.956;6.962;2023-10-09T04:13:48;14.20;;;7.40;;
5898;SDS011;2975;50.956;6.962;2023-10-09T04:16:18;11.63;;;7.20;;
5898;SDS011;2975;50.956;6.962;2023-10-09T04:19:00;11.53;;;7.17;;
5898;SDS011;2975;50.956;6.962;2023-10-09T04:21:35;12.47;;;6.60;;
5898;SDS011;2975;50.956;6.962;2023-10-09T04:24:05;12.63;;;6.47;;
5898;SDS011;2975;50.956;6.962;2023-10-09T04:26:47;11.93;;;6.53;;
5898;SDS011;2975;50.956;6.962;2023-10-09T04:29:14;13.47;;;6.87;;
5898;SDS011;2975;50.956;6.962;2023-10-09T04:31:48;11.37;;;6.93;;
5898;SDS011;2975;50.956;6.962;2023-10-09T04:34:19;13.97;;;7.57;;
5898;SDS011;2975;50.956;6.962;2023-10-09T04:36:59;17.43;;;9.07;;
5898;SDS011;2975;50.956;6.962;2023-10-09T04:39:28;12.10;;;6.90;;
5898;SDS011;2975;50.956;6.962;2023-10-09T04:41:54;12.03;;;6.23;;
5898;SDS011;2975;50.956;6.962;2023-10-09T04:44:39;14.03;;;6.80;;
5898;SDS011;2975;50.956;6.962;2023-10-09T04:47:24;11.77;;;6.03;;
5898;SDS011;2975;50.956;6.962;2023-10-09T04:50:00;14.03;;;6.53;;
5898;SDS011;2975;50.956;6.962;2023-10-09T04:52:48;12.63;;;6.83;;
5898;SDS011;2975;50.956;6.962;2023-10-09T04:55:17;10.47;;;6.03;;
5898;SDS011;2975;50.956;6.962;2023-10-09T04:57:44;12.97;;;6.70;;
5898;SDS011;2975;50.956;6.962;2023-10-09T05:00:13;15.23;;;7.03;;
5898;SDS011;2975;50.956;6.962;2023-10-09T05:02:50;9.53;;;6.33;;
5898;SDS011;2975;50.956;6.962;2023-10-09T05:05:20;11.00;;;6.20;;
5898;SDS011;2975;50.956;6.962;2023-10-09T05:08:04;13.30;;;7.37;;
5898;SDS011;2975;50.956;6.962;2023-10-09T05:13:29;16.07;;;6.10;;
5898;SDS011;2975;50.956;6.962;2023-10-09T05:16:22;11.03;;;6.27;;
5898;SDS011;2975;50.956;6.962;2023-10-09T05:18:48;13.20;;;6.90;;
5898;SDS011;2975;50.956;6.962;2023-10-09T05:21:34;9.57;;;6.47;;
5898;SDS011;2975;50.956;6.962;2023-10-09T05:24:02;10.63;;;6.20;;
5898;SDS011;2975;50.956;6.962;2023-10-09T05:26:41;11.67;;;5.83;;
5898;SDS011;2975;50.956;6.962;2023-10-09T05:29:17;12.37;;;6.60;;
5898;SDS011;2975;50.956;6.962;2023-10-09T05:31:59;15.50;;;7.00;;
5898;SDS011;2975;50.956;6.962;2023-10-09T05:34:52;15.70;;;6.80;;
5898;SDS011;2975;50.956;6.962;2023-10-09T05:37:23;11.00;;;5.40;;
5898;SDS011;2975;50.956;6.962;2023-10-09T05:39:53;10.87;;;5.83;;
5898;SDS011;2975;50.956;6.962;2023-10-09T05:42:29;12.23;;;6.33;;
5898;SDS011;2975;50.956;6.962;2023-10-09T05:45:04;11.23;;;5.80;;
5898;SDS011;2975;50.956;6.962;2023-10-09T05:50:30;13.53;;;5.80;;
5898;SDS011;2975;50.956;6.962;2023-10-09T05:53:25;10.83;;;5.50;;
5898;SDS011;2975;50.956;6.962;2023-10-09T05:56:09;12.17;;;6.33;;
5898;SDS011;2975;50.956;6.962;2023-10-09T05:59:06;8.47;;;5.40;;
5898;SDS011;2975;50.956;6.962;2023-10-09T06:01:51;12.77;;;6.93;;
5898;SDS011;2975;50.956;6.962;2023-10-09T06:04:35;10.87;;;6.47;;
5898;SDS011;2975;50.956;6.962;2023-10-09T06:07:19;14.80;;;6.17;;
5898;SDS011;2975;50.956;6.962;2023-10-09T06:09:49;9.40;;;5.63;;
5898;SDS011;2975;50.956;6.962;2023-10-09T06:12:17;10.63;;;6.00;;
5898;SDS011;2975;50.956;6.962;2023-10-09T06:14:58;16.03;;;5.93;;
5898;SDS011;2975;50.956;6.962;2023-10-09T06:17:43;10.33;;;6.03;;
5898;SDS011;2975;50.956;6.962;2023-10-09T06:20:09;13.43;;;5.80;;
5898;SDS011;2975;50.956;6.962;2023-10-09T06:22:54;9.87;;;5.77;;
5898;SDS011;2975;50.956;6.962;2023-10-09T06:25:22;10.67;;;6.40;;
5898;SDS011;2975;50.956;6.962;2023-10-09T06:27:57;12.00;;;5.70;;
5898;SDS011;2975;50.956;6.962;2023-10-09T06:30:24;12.43;;;5.73;;
5898;SDS011;2975;50.956;6.962;2023-10-09T06:32:51;10.90;;;4.97;;
5898;SDS011;2975;50.956;6.962;2023-10-09T06:35:20;13.17;;;5.37;;
5898;SDS011;2975;50.956;6.962;2023-10-09T06:37:55;9.30;;;5.13;;
5898;SDS011;2975;50.956;6.962;2023-10-09T06:40:28;10.30;;;4.97;;
5898;SDS011;2975;50.956;6.962;2023-10-09T06:43:13;8.57;;;5.10;;
5898;SDS011;2975;50.956;6.962;2023-10-09T06:45:42;9.70;;;5.53;;
5898;SDS011;2975;50.956;6.962;2023-10-09T06:48:11;10.00;;;5.13;;
5898;SDS011;2975;50.956;6.962;2023-10-09T06:50:56;8.07;;;4.93;;
5898;SDS011;2975;50.956;6.962;2023-10-09T06:53:22;8.67;;;5.00;;
5898;SDS011;2975;50.956;6.962;2023-10-09T06:56:11;9.40;;;4.97;;
5898;SDS011;2975;50.956;6.962;2023-10-09T06:58:48;11.80;;;4.90;;
5898;SDS011;2975;50.956;6.962;2023-10-09T07:01:14;13.30;;;5.00;;
5898;SDS011;2975;50.956;6.962;2023-10-09T07:04:06;11.70;;;5.97;;
5898;SDS011;2975;50.956;6.962;2023-10-09T07:06:57;7.73;;;5.30;;
5898;SDS011;2975;50.956;6.962;2023-10-09T07:09:24;15.23;;;5.60;;
5898;SDS011;2975;50.956;6.962;2023-10-09T07:12:07;11.27;;;5.87;;
5898;SDS011;2975;50.956;6.962;2023-10-09T07:14:45;12.07;;;6.57;;
5898;SDS011;2975;50.956;6.962;2023-10-09T07:17:11;12.00;;;6.83;;
5898;SDS011;2975;50.956;6.962;2023-10-09T07:19:45;10.70;;;6.37;;
5898;SDS011;2975;50.956;6.962;2023-10-09T07:22:11;11.37;;;5.83;;
5898;SDS011;2975;50.956;6.962;2023-10-09T07:25:01;12.10;;;6.43;;
5898;SDS011;2975;50.956;6.962;2023-10-09T07:27:57;12.10;;;6.40;;
5898;SDS011;2975;50.956;6.962;2023-10-09T07:30:25;9.90;;;5.80;;
5898;SDS011;2975;50.956;6.962;2023-10-09T07:33:00;11.23;;;5.77;;
5898;SDS011;2975;50.956;6.962;2023-10-09T07:35:35;13.03;;;6.30;;
5898;SDS011;2975;50.956;6.962;2023-10-09T07:38:23;11.27;;;6.47;;
5898;SDS011;2975;50.956;6.962;2023-10-09T07:40:54;9.50;;;5.97;;
5898;SDS011;2975;50.956;6.962;2023-10-09T07:43:24;13.37;;;6.43;;
5898;SDS011;2975;50.956;6.962;2023-10-09T07:46:10;15.47;;;7.40;;
5898;SDS011;2975;50.956;6.962;2023-10-09T07:49:02;11.60;;;5.93;;
5898;SDS011;2975;50.956;6.962;2023-10-09T07:51:35;10.67;;;6.23;;
5898;SDS011;2975;50.956;6.962;2023-10-09T07:54:02;14.57;;;6.63;;
5898;SDS011;2975;50.956;6.962;2023-10-09T07:56:34;13.03;;;6.13;;
5898;SDS011;2975;50.956;6.962;2023-10-09T07:59:09;11.17;;;5.40;;
5898;SDS011;2975;50.956;6.962;2023-10-09T08:04:20;11.13;;;5.73;;
5898;SDS011;2975;50.956;6.962;2023-10-09T08:07:09;10.80;;;6.10;;
5898;SDS011;2975;50.956;6.962;2023-10-09T08:09:44;12.93;;;6.07;;
5898;SDS011;2975;50.956;6.962;2023-10-09T08:12:36;11.90;;;6.03;;
5898;SDS011;2975;50.956;6.962;2023-10-09T08:15:03;11.10;;;5.80;;
5898;SDS011;2975;50.956;6.962;2023-10-09T08:17:54;8.83;;;5.10;;
5898;SDS011;2975;50.956;6.962;2023-10-09T08:20:43;12.30;;;5.40;;
5898;SDS011;2975;50.956;6.962;2023-10-09T08:23:27;10.60;;;5.17;;
5898;SDS011;2975;50.956;6.962;2023-10-09T08:26:11;8.80;;;4.77;;
5898;SDS011;2975;50.956;6.962;2023-10-09T08:28:40;11.87;;;5.23;;
5898;SDS011;2975;50.956;6.962;2023-10-09T08:31:13;9.90;;;4.87;;
5898;SDS011;2975;50.956;6.962;2023-10-09T08:33:58;11.90;;;5.67;;
5898;SDS011;2975;50.956;6.962;2023-10-09T08:36:27;8.83;;;5.37;;
5898;SDS011;2975;50.956;6.962;2023-10-09T08:38:56;8.97;;;4.87;;
5898;SDS011;2975;50.956;6.962;2023-10-09T08:41:23;10.03;;;4.83;;
5898;SDS011;2975;50.956;6.962;2023-10-09T08:43:55;9.33;;;5.00;;
5898;SDS011;2975;50.956;6.962;2023-10-09T08:46:26;11.67;;;5.03;;
5898;SDS011;2975;50.956;6.962;2023-10-09T08:48:54;12.03;;;5.50;;
5898;SDS011;2975;50.956;6.962;2023-10-09T08:51:20;10.40;;;5.50;;
5898;SDS011;2975;50.956;6.962;2023-10-09T08:53:47;8.23;;;5.10;;
5898;SDS011;2975;50.956;6.962;2023-10-09T08:56:13;12.27;;;5.47;;
5898;SDS011;2975;50.956;6.962;2023-10-09T08:58:47;8.70;;;4.70;;
5898;SDS011;2975;50.956;6.962;2023-10-09T09:01:16;10.93;;;4.93;;
5898;SDS011;2975;50.956;6.962;2023-10-09T09:03:46;9.97;;;4.67;;
5898;SDS011;2975;50.956;6.962;2023-10-09T09:06:12;11.03;;;5.73;;
5898;SDS011;2975;50.956;6.962;2023-10-09T09:08:39;8.23;;;5.10;;
5898;SDS011;2975;50.956;6.962;2023-10-09T09:11:13;8.63;;;4.33;;
5898;SDS011;2975;50.956;6.962;2023-10-09T09:13:46;7.50;;;4.83;;
5898;SDS011;2975;50.956;6.962;2023-10-09T09:18:52;12.00;;;5.53;;
5898;SDS011;2975;50.956;6.962;2023-10-09T09:21:25;10.20;;;4.87;;
5898;SDS011;2975;50.956;6.962;2023-10-09T09:23:56;10.17;;;4.93;;
5898;SDS011;2975;50.956;6.962;2023-10-09T09:26:40;13.57;;;5.40;;
5898;SDS011;2975;50.956;6.962;2023-10-09T09:29:12;12.40;;;5.47;;
5898;SDS011;2975;50.956;6.962;2023-10-09T09:31:39;10.97;;;5.27;;
5898;SDS011;2975;50.956;6.962;2023-10-09T09:34:22;11.77;;;5.30;;
5898;SDS011;2975;50.956;6.962;2023-10-09T09:36:54;9.20;;;5.13;;
5898;SDS011;2975;50.956;6.962;2023-10-09T09:39:23;15.77;;;6.27;;
5898;SDS011;2975;50.956;6.962;2023-10-09T09:41:56;10.77;;;5.37;;
5898;SDS011;2975;50.956;6.962;2023-10-09T09:44:29;11.70;;;5.20;;
5898;SDS011;2975;50.956;6.962;2023-10-09T09:47:00;11.40;;;4.90;;
5898;SDS011;2975;50.956;6.962;2023-10-09T09:49:27;13.73;;;5.87;;
5898;SDS011;2975;50.956;6.962;2023-10-09T09:51:58;9.00;;;5.23;;
5898;SDS011;2975;50.956;6.962;2023-10-09T09:54:26;10.57;;;5.00;;
5898;SDS011;2975;50.956;6.962;2023-10-09T09:56:53;7.20;;;4.67;;
5898;SDS011;2975;50.956;6.962;2023-10-09T09:59:23;8.50;;;4.23;;
5898;SDS011;2975;50.956;6.962;2023-10-09T10:01:57;6.93;;;4.10;;
5898;SDS011;2975;50.956;6.962;2023-10-09T10:04:31;7.00;;;4.67;;
5898;SDS011;2975;50.956;6.962;2023-10-09T10:07:00;9.00;;;4.38;;
5898;SDS011;2975;50.956;6.962;2023-10-09T10:09:37;10.85;;;5.13;;
5898;SDS011;2975;50.956;6.962;2023-10-09T10:12:07;8.20;;;4.20;;
5898;SDS011;2975;50.956;6.962;2023-10-09T10:14:52;10.37;;;4.60;;
5898;SDS011;2975;50.956;6.962;2023-10-09T10:17:24;9.57;;;4.57;;
5898;SDS011;2975;50.956;6.962;2023-10-09T10:20:07;7.93;;;4.13;;
5898;SDS011;2975;50.956;6.962;2023-10-09T10:22:42;8.10;;;4.35;;
5898;SDS011;2975;50.956;6.962;2023-10-09T10:25:31;6.82;;;4.00;;
5898;SDS011;2975;50.956;6.962;2023-10-09T10:30:53;8.02;;;4.07;;
5898;SDS011;2975;50.956;6.962;2023-10-09T10:33:25;11.57;;;4.65;;
5898;SDS011;2975;50.956;6.962;2023-10-09T10:35:52;11.55;;;4.82;;
5898;SDS011;2975;50.956;6.962;2023-10-09T10:40:49;8.02;;;4.05;;
5898;SDS011;2975;50.956;6.962;2023-10-09T10:43:25;9.52;;;4.55;;
5898;SDS011;2975;50.956;6.962;2023-10-09T10:46:01;9.95;;;4.10;;
5898;SDS011;2975;50.956;6.962;2023-10-09T10:48:39;9.60;;;3.50;;
5898;SDS011;2975;50.956;6.962;2023-10-09T10:51:05;7.88;;;3.53;;
5898;SDS011;2975;50.956;6.962;2023-10-09T10:53:31;6.82;;;3.20;;
5898;SDS011;2975;50.956;6.962;2023-10-09T10:56:17;8.80;;;3.85;;
5898;SDS011;2975;50.956;6.962;2023-10-09T10:58:53;8.07;;;3.83;;
5898;SDS011;2975;50.956;6.962;2023-10-09T11:01:31;8.57;;;4.03;;
5898;SDS011;2975;50.956;6.962;2023-10-09T11:04:16;8.15;;;3.67;;
5898;SDS011;2975;50.956;6.962;2023-10-09T11:07:01;10.68;;;4.35;;
5898;SDS011;2975;50.956;6.962;2023-10-09T11:09:50;7.68;;;3.40;;
5898;SDS011;2975;50.956;6.962;2023-10-09T11:12:30;8.35;;;3.65;;
5898;SDS011;2975;50.956;6.962;2023-10-09T11:15:07;4.65;;;2.92;;
5898;SDS011;2975;50.956;6.962;2023-10-09T11:18:04;6.70;;;3.67;;
5898;SDS011;2975;50.956;6.962;2023-10-09T11:20:50;5.00;;;3.40;;
5898;SDS011;2975;50.956;6.962;2023-10-09T11:23:30;6.47;;;3.20;;
5898;SDS011;2975;50.956;6.962;2023-10-09T11:25:59;6.03;;;3.40;;
5898;SDS011;2975;50.956;6.962;2023-10-09T11:28:44;3.75;;;2.80;;
5898;SDS011;2975;50.956;6.962;2023-10-09T11:31:22;5.75;;;3.50;;
5898;SDS011;2975;50.956;6.962;2023-10-09T11:33:52;7.75;;;3.72;;
5898;SDS011;2975;50.956;6.962;2023-10-09T11:36:19;8.40;;;3.33;;
5898;SDS011;2975;50.956;6.962;2023-10-09T11:39:01;9.60;;;3.70;;
5898;SDS011;2975;50.956;6.962;2023-10-09T11:41:47;6.80;;;3.83;;
5898;SDS011;2975;50.956;6.962;2023-10-09T11:44:14;9.73;;;4.28;;
5898;SDS011;2975;50.956;6.962;2023-10-09T11:46:59;5.25;;;3.22;;
5898;SDS011;2975;50.956;6.962;2023-10-09T11:49:49;7.15;;;3.50;;
5898;SDS011;2975;50.956;6.962;2023-10-09T11:52:26;9.35;;;3.67;;
5898;SDS011;2975;50.956;6.962;2023-10-09T11:55:04;6.75;;;3.65;;
5898;SDS011;2975;50.956;6.962;2023-10-09T11:57:39;8.55;;;3.70;;
5898;SDS011;2975;50.956;6.962;2023-10-09T12:00:06;5.82;;;3.85;;
5898;SDS011;2975;50.956;6.962;2023-10-09T12:02:54;6.30;;;3.80;;
5898;SDS011;2975;50.956;6.962;2023-10-09T12:05:20;8.40;;;3.63;;
5898;SDS011;2975;50.956;6.962;2023-10-09T12:07:46;7.53;;;4.05;;
5898;SDS011;2975;50.956;6.962;2023-10-09T12:10:19;6.07;;;3.75;;
5898;SDS011;2975;50.956;6.962;2023-10-09T12:12:54;6.55;;;3.58;;
5898;SDS011;2975;50.956;6.962;2023-10-09T12:15:23;6.68;;;3.55;;
5898;SDS011;2975;50.956;6.962;2023-10-09T12:17:49;8.07;;;3.88;;
5898;SDS011;2975;50.956;6.962;2023-10-09T12:20:18;9.55;;;3.78;;
5898;SDS011;2975;50.956;6.962;2023-10-09T12:22:59;6.65;;;3.97;;
5898;SDS011;2975;50.956;6.962;2023-10-09T12:25:26;7.32;;;4.03;;
5898;SDS011;2975;50.956;6.962;2023-10-09T12:27:56;6.20;;;3.63;;
5898;SDS011;2975;50.956;6.962;2023-10-09T12:30:26;6.45;;;4.50;;
5898;SDS011;2975;50.956;6.962;2023-10-09T12:32:56;8.77;;;4.43;;
5898;SDS011;2975;50.956;6.962;2023-10-09T12:35:25;11.48;;;3.95;;
5898;SDS011;2975;50.956;6.962;2023-10-09T12:37:54;8.18;;;4.47;;
5898;SDS011;2975;50.956;6.962;2023-10-09T12:40:21;13.02;;;4.18;;
5898;SDS011;2975;50.956;6.962;2023-10-09T12:42:54;10.57;;;4.97;;
5898;SDS011;2975;50.956;6.962;2023-10-09T12:45:21;9.52;;;4.72;;
5898;SDS011;2975;50.956;6.962;2023-10-09T12:47:57;7.90;;;4.75;;
5898;SDS011;2975;50.956;6.962;2023-10-09T12:50:25;7.63;;;4.63;;
5898;SDS011;2975;50.956;6.962;2023-10-09T12:52:54;7.53;;;4.60;;
5898;SDS011;2975;50.956;6.962;2023-10-09T12:55:30;6.88;;;4.05;;
5898;SDS011;2975;50.956;6.962;2023-10-09T12:58:00;8.80;;;4.10;;
5898;SDS011;2975;50.956;6.962;2023-10-09T13:00:32;6.72;;;4.60;;
5898;SDS011;2975;50.956;6.962;2023-10-09T13:03:23;10.73;;;4.57;;
5898;SDS011;2975;50.956;6.962;2023-10-09T13:05:53;7.35;;;3.92;;
5898;SDS011;2975;50.956;6.962;2023-10-09T13:08:28;6.82;;;3.67;;
5898;SDS011;2975;50.956;6.962;2023-10-09T13:11:07;9.18;;;4.45;;
5898;SDS011;2975;50.956;6.962;2023-10-09T13:13:40;10.75;;;4.18;;
5898;SDS011;2975;50.956;6.962;2023-10-09T13:16:08;10.95;;;4.40;;
5898;SDS011;2975;50.956;6.962;2023-10-09T13:18:53;10.07;;;4.32;;
5898;SDS011;2975;50.956;6.962;2023-10-09T13:21:25;10.77;;;4.68;;
5898;SDS011;2975;50.956;6.962;2023-10-09T13:23:52;11.02;;;4.38;;
5898;SDS011;2975;50.956;6.962;2023-10-09T13:26:20;8.20;;;4.15;;
5898;SDS011;2975;50.956;6.962;2023-10-09T13:28:53;9.60;;;4.18;;
5898;SDS011;2975;50.956;6.962;2023-10-09T13:31:21;12.63;;;4.57;;
5898;SDS011;2975;50.956;6.962;2023-10-09T13:33:52;9.52;;;3.55;;
5898;SDS011;2975;50.956;6.962;2023-10-09T13:36:24;8.30;;;4.22;;
5898;SDS011;2975;50.956;6.962;2023-10-09T13:38:57;8.43;;;4.30;;
5898;SDS011;2975;50.956;6.962;2023-10-09T13:41:43;9.15;;;4.28;;
5898;SDS011;2975;50.956;6.962;2023-10-09T13:44:09;13.05;;;5.32;;
5898;SDS011;2975;50.956;6.962;2023-10-09T13:46:35;7.63;;;4.13;;
5898;SDS011;2975;50.956;6.962;2023-10-09T13:49:06;9.32;;;4.82;;
5898;SDS011;2975;50.956;6.962;2023-10-09T13:51:41;9.57;;;4.43;;
5898;SDS011;2975;50.956;6.962;2023-10-09T13:56:59;8.27;;;4.73;;
5898;SDS011;2975;50.956;6.962;2023-10-09T13:59:25;9.63;;;4.50;;
5898;SDS011;2975;50.956;6.962;2023-10-09T14:01:51;8.43;;;4.35;;
5898;SDS011;2975;50.956;6.962;2023-10-09T14:04:20;11.52;;;4.13;;
5898;SDS011;2975;50.956;6.962;2023-10-09T14:06:49;9.80;;;4.43;;
5898;SDS011;2975;50.956;6.962;2023-10-09T14:09:26;11.18;;;4.53;;
5898;SDS011;2975;50.956;6.962;2023-10-09T14:12:10;10.13;;;4.40;;
5898;SDS011;2975;50.956;6.962;2023-10-09T14:17:12;8.25;;;4.57;;
5898;SDS011;2975;50.956;6.962;2023-10-09T14:19:41;10.48;;;4.70;;
5898;SDS011;2975;50.956;6.962;2023-10-09T14:22:25;11.05;;;4.25;;
5898;SDS011;2975;50.956;6.962;2023-10-09T14:24:51;10.05;;;4.25;;
5898;SDS011;2975;50.956;6.962;2023-10-09T14:27:20;10.63;;;4.25;;
5898;SDS011;2975;50.956;6.962;2023-10-09T14:29:51;9.70;;;3.90;;
5898;SDS011;2975;50.956;6.962;2023-10-09T14:32:20;6.95;;;4.25;;
5898;SDS011;2975;50.956;6.962;2023-10-09T14:34:53;12.90;;;4.53;;
5898;SDS011;2975;50.956;6.962;2023-10-09T14:37:19;8.05;;;4.63;;
5898;SDS011;2975;50.956;6.962;2023-10-09T14:39:46;10.98;;;5.13;;
5898;SDS011;2975;50.956;6.962;2023-10-09T14:42:15;9.80;;;4.07;;
5898;SDS011;2975;50.956;6.962;2023-10-09T14:44:41;14.52;;;4.43;;
5898;SDS011;2975;50.956;6.962;2023-10-09T14:47:10;6.82;;;4.75;;
5898;SDS011;2975;50.956;6.962;2023-10-09T14:49:36;12.27;;;5.07;;
5898;SDS011;2975;50.956;6.962;2023-10-09T14:52:08;9.53;;;5.10;;
5898;SDS011;2975;50.956;6.962;2023-10-09T14:54:35;6.30;;;4.30;;
5898;SDS011;2975;50.956;6.962;2023-10-09T14:57:00;6.47;;;4.43;;
5898;SDS011;2975;50.956;6.962;2023-10-09T14:59:30;10.07;;;5.43;;
5898;SDS011;2975;50.956;6.962;2023-10-09T15:02:00;9.48;;;4.43;;
5898;SDS011;2975;50.956;6.962;2023-10-09T15:04:26;11.27;;;4.70;;
5898;SDS011;2975;50.956;6.962;2023-10-09T15:06:52;11.15;;;4.78;;
5898;SDS011;2975;50.956;6.962;2023-10-09T15:09:18;7.45;;;4.47;;
5898;SDS011;2975;50.956;6.962;2023-10-09T15:11:47;8.55;;;5.00;;
5898;SDS011;2975;50.956;6.962;2023-10-09T15:14:16;9.27;;;4.72;;
5898;SDS011;2975;50.956;6.962;2023-10-09T15:16:45;13.68;;;5.05;;
5898;SDS011;2975;50.956;6.962;2023-10-09T15:19:11;6.68;;;4.70;;
5898;SDS011;2975;50.956;6.962;2023-10-09T15:21:37;10.07;;;4.73;;
5898;SDS011;2975;50.956;6.962;2023-10-09T15:24:10;8.03;;;5.03;;
5898;SDS011;2975;50.956;6.962;2023-10-09T15:26:44;7.50;;;4.40;;
5898;SDS011;2975;50.956;6.962;2023-10-09T15:29:17;8.83;;;4.47;;
5898;SDS011;2975;50.956;6.962;2023-10-09T15:31:44;7.55;;;4.22;;
5898;SDS011;2975;50.956;6.962;2023-10-09T15:34:12;10.10;;;5.13;;
5898;SDS011;2975;50.956;6.962;2023-10-09T15:36:37;8.45;;;4.43;;
5898;SDS011;2975;50.956;6.962;2023-10-09T15:39:05;8.80;;;4.78;;
5898;SDS011;2975;50.956;6.962;2023-10-09T15:41:33;10.90;;;4.88;;
5898;SDS011;2975;50.956;6.962;2023-10-09T15:43:59;11.13;;;5.13;;
5898;SDS011;2975;50.956;6.962;2023-10-09T15:46:26;9.50;;;5.18;;
5898;SDS011;2975;50.956;6.962;2023-10-09T15:48:52;11.82;;;5.30;;
5898;SDS011;2975;50.956;6.962;2023-10-09T15:51:18;6.80;;;4.43;;
5898;SDS011;2975;50.956;6.962;2023-10-09T15:53:44;12.10;;;5.17;;
5898;SDS011;2975;50.956;6.962;2023-10-09T15:56:11;7.27;;;4.37;;
5898;SDS011;2975;50.956;6.962;2023-10-09T15:58:38;10.65;;;5.13;;
5898;SDS011;2975;50.956;6.962;2023-10-09T16:01:08;7.68;;;4.93;;
5898;SDS011;2975;50.956;6.962;2023-10-09T16:03:34;10.77;;;5.03;;